Ithomi — V7UZ9 — position and weather

sailwx.info

Track history (hours):
 
Tides and Currents Weather Stations Pressure Air Temp Water Temp Dewpoint Dewpoint Depression Visibility Wind Speed Wind Dir Waves Ship Positions

Ithomi

Last reported at 2014-Oct-13 08:33 UTC. Time now 2014-Oct-21 18:31 UTC.
Position N 01°15' E 104°02'.
Warning: this ship's position is 8 days out of date.

Length 189 m; draft 6.9 m.

Type: Cargo ship. MMSI: 538004069.

Date/timePositionNaut miles runAvg speedWind from/ knotsBaromVisibWave heightAir tempDewpointWater temp
2014-Oct-13 08:33N 01°15' E 104°02'6 5.8
2014-Oct-13 07:32N 01°17' E 103°56'0 0.1
2014-Oct-13 06:32N 01°17' E 103°56'0 0.0
2014-Oct-13 05:32N 01°17' E 103°56'0 0.0
2014-Oct-13 04:34N 01°17' E 103°56'0 0.1
2014-Oct-13 03:33N 01°17' E 103°56'0 0.0
2014-Oct-13 02:33N 01°17' E 103°56'0 0.0
2014-Oct-13 01:34N 01°17' E 103°56'0 0.1
2014-Oct-13 00:33N 01°17' E 103°56'0 0.1
2014-Oct-12 23:33N 01°17' E 103°56'0 0.1
2014-Oct-12 22:33N 01°17' E 103°56'0 0.0
2014-Oct-12 21:33N 01°16' E 103°56'0 0.0
2014-Oct-12 20:33N 01°16' E 103°56'0 0.0
2014-Oct-12 19:33N 01°17' E 103°56'0 0.1
2014-Oct-12 18:34N 01°17' E 103°56'0 0.0
2014-Oct-12 17:32N 01°17' E 103°56'0 0.0
2014-Oct-12 16:33N 01°17' E 103°56'0 0.0
2014-Oct-12 15:34N 01°17' E 103°56'0 0.0
2014-Oct-12 14:34N 01°17' E 103°56'0 0.2
2014-Oct-12 13:33N 01°17' E 103°56'0 0.1
2014-Oct-12 12:33N 01°17' E 103°56'0 0.0
2014-Oct-12 11:33N 01°17' E 103°56'0 0.0
2014-Oct-12 10:34N 01°17' E 103°56'0 0.0
2014-Oct-12 09:33N 01°17' E 103°56'2 2.3
2014-Oct-12 08:33N 01°16' E 103°59'6 5.8
2014-Oct-12 07:33N 01°16' E 104°04'6 0.7
2014-Oct-11 23:25N 01°18' E 104°10'0 0.1
2014-Oct-11 22:13N 01°18' E 104°10'0 0.0
2014-Oct-11 21:19N 01°18' E 104°10'0 0.0
2014-Oct-11 20:25N 01°18' E 104°10'0 0.0
2014-Oct-11 19:31N 01°18' E 104°10'0 0.1
2014-Oct-11 17:31N 01°18' E 104°10'0 0.0
2014-Oct-11 13:07N 01°18' E 104°10'0 0.1
2014-Oct-11 12:31N 01°18' E 104°10'0 0.0
2014-Oct-11 07:31N 01°18' E 104°10'0 0.0
2014-Oct-10 21:10N 01°18' E 104°10'0 0.0
2014-Oct-10 20:31N 01°18' E 104°10'0 0.0
2014-Oct-10 08:25N 01°18' E 104°10'0 0.0
2014-Oct-10 07:13N 01°18' E 104°10'0 0.0
2014-Oct-10 06:25N 01°18' E 104°10'0 0.0
2014-Oct-09 17:25N 01°18' E 104°10'0 0.0
2014-Oct-09 11:16N 01°18' E 104°10'0 0.1
2014-Oct-09 09:31N 01°18' E 104°10'0 0.0
2014-Oct-08 17:19N 01°18' E 104°10'0 0.0
2014-Oct-08 15:22N 01°18' E 104°10'0 0.0
2014-Oct-08 12:07N 01°18' E 104°10'0 0.0
2014-Oct-08 11:28N 01°18' E 104°10'0 0.1
2014-Oct-08 08:13N 01°18' E 104°10'0 0.0
2014-Oct-08 04:28N 01°18' E 104°10'0 0.0
2014-Oct-07 08:04N 01°18' E 104°10'0 0.0
2014-Oct-07 03:10N 01°18' E 104°10'0 0.0
2014-Oct-06 17:31N 01°18' E 104°10'0 0.0
2014-Oct-06 13:31N 01°18' E 104°10'0 0.0
2014-Oct-06 02:22N 01°18' E 104°10'0 0.0
2014-Oct-05 21:22N 01°18' E 104°10'0 0.0
2014-Oct-05 20:31N 01°18' E 104°10'0 0.0
2014-Oct-04 23:04N 01°18' E 104°10'0 0.0
2014-Oct-04 21:10N 01°18' E 104°10'0 0.0
2014-Oct-04 20:07N 01°18' E 104°10'0 0.0
2014-Oct-04 19:04N 01°18' E 104°10'0 0.0
2014-Oct-04 18:16N 01°18' E 104°10'0 0.0
2014-Oct-04 17:25N 01°18' E 104°10'0 0.0
2014-Oct-04 15:25N 01°18' E 104°10'0 0.0
2014-Oct-03 18:31N 01°18' E 104°10'  
Track history (hours):
 
Tides and Currents Weather Stations Pressure Air Temp Water Temp Dewpoint Dewpoint Depression Visibility Wind Speed Wind Dir Waves Ship Positions

Ithomi

Last reported at 2014-Oct-13 08:33 UTC. Time now 2014-Oct-21 18:31 UTC.
Position N 01°15' E 104°02'.
Warning: this ship's position is 8 days out of date.

Length 189 m; draft 6.9 m.

Type: Cargo ship. MMSI: 538004069.

Date/timePositionNaut miles runAvg speedWind from/ knotsBaromVisibWave heightAir tempDewpointWater temp
2014-Oct-13 08:33N 01°15' E 104°02'6 5.8
2014-Oct-13 07:32N 01°17' E 103°56'0 0.1
2014-Oct-13 06:32N 01°17' E 103°56'0 0.0
2014-Oct-13 05:32N 01°17' E 103°56'0 0.0
2014-Oct-13 04:34N 01°17' E 103°56'0 0.1
2014-Oct-13 03:33N 01°17' E 103°56'0 0.0
2014-Oct-13 02:33N 01°17' E 103°56'0 0.0
2014-Oct-13 01:34N 01°17' E 103°56'0 0.1
2014-Oct-13 00:33N 01°17' E 103°56'0 0.1
2014-Oct-12 23:33N 01°17' E 103°56'0 0.1
2014-Oct-12 22:33N 01°17' E 103°56'0 0.0
2014-Oct-12 21:33N 01°16' E 103°56'0 0.0
2014-Oct-12 20:33N 01°16' E 103°56'0 0.0
2014-Oct-12 19:33N 01°17' E 103°56'0 0.1
2014-Oct-12 18:34N 01°17' E 103°56'0 0.0
2014-Oct-12 17:32N 01°17' E 103°56'0 0.0
2014-Oct-12 16:33N 01°17' E 103°56'0 0.0
2014-Oct-12 15:34N 01°17' E 103°56'0 0.0
2014-Oct-12 14:34N 01°17' E 103°56'0 0.2
2014-Oct-12 13:33N 01°17' E 103°56'0 0.1
2014-Oct-12 12:33N 01°17' E 103°56'0 0.0
2014-Oct-12 11:33N 01°17' E 103°56'0 0.0
2014-Oct-12 10:34N 01°17' E 103°56'0 0.0
2014-Oct-12 09:33N 01°17' E 103°56'2 2.3
2014-Oct-12 08:33N 01°16' E 103°59'6 5.8
2014-Oct-12 07:33N 01°16' E 104°04'6 0.7
2014-Oct-11 23:25N 01°18' E 104°10'0 0.1
2014-Oct-11 22:13N 01°18' E 104°10'0 0.0
2014-Oct-11 21:19N 01°18' E 104°10'0 0.0
2014-Oct-11 20:25N 01°18' E 104°10'0 0.0
2014-Oct-11 19:31N 01°18' E 104°10'0 0.1
2014-Oct-11 17:31N 01°18' E 104°10'0 0.0
2014-Oct-11 13:07N 01°18' E 104°10'0 0.1
2014-Oct-11 12:31N 01°18' E 104°10'0 0.0
2014-Oct-11 07:31N 01°18' E 104°10'0 0.0
2014-Oct-10 21:10N 01°18' E 104°10'0 0.0
2014-Oct-10 20:31N 01°18' E 104°10'0 0.0
2014-Oct-10 08:25N 01°18' E 104°10'0 0.0
2014-Oct-10 07:13N 01°18' E 104°10'0 0.0
2014-Oct-10 06:25N 01°18' E 104°10'0 0.0
2014-Oct-09 17:25N 01°18' E 104°10'0 0.0
2014-Oct-09 11:16N 01°18' E 104°10'0 0.1
2014-Oct-09 09:31N 01°18' E 104°10'0 0.0
2014-Oct-08 17:19N 01°18' E 104°10'0 0.0
2014-Oct-08 15:22N 01°18' E 104°10'0 0.0
2014-Oct-08 12:07N 01°18' E 104°10'0 0.0
2014-Oct-08 11:28N 01°18' E 104°10'0 0.1
2014-Oct-08 08:13N 01°18' E 104°10'0 0.0
2014-Oct-08 04:28N 01°18' E 104°10'0 0.0
2014-Oct-07 08:04N 01°18' E 104°10'0 0.0
2014-Oct-07 03:10N 01°18' E 104°10'0 0.0
2014-Oct-06 17:31N 01°18' E 104°10'0 0.0
2014-Oct-06 13:31N 01°18' E 104°10'0 0.0
2014-Oct-06 02:22N 01°18' E 104°10'0 0.0
2014-Oct-05 21:22N 01°18' E 104°10'0 0.0
2014-Oct-05 20:31N 01°18' E 104°10'0 0.0
2014-Oct-04 23:04N 01°18' E 104°10'0 0.0
2014-Oct-04 21:10N 01°18' E 104°10'0 0.0
2014-Oct-04 20:07N 01°18' E 104°10'0 0.0
2014-Oct-04 19:04N 01°18' E 104°10'0 0.0
2014-Oct-04 18:16N 01°18' E 104°10'0 0.0
2014-Oct-04 17:25N 01°18' E 104°10'0 0.0
2014-Oct-04 15:25N 01°18' E 104°10'0 0.0
2014-Oct-03 18:31N 01°18' E 104°10'  

Dump ship's entire track history